ADDS METAR Data INFO
IDs: Format: Raw Decoded Include TAF

Data at: 1718 UTC 23 Oct 2017

KDTN 231653Z 23006KT 10SM CLR 22/07 A3012 RMK AO2 SLP200 T02170067
KDTN 231553Z 22005KT 10SM CLR 19/07 A3013 RMK AO2 SLP203 T01890067
KDTN 231453Z 23003KT 10SM CLR 16/10 A3013 RMK AO2 SLP201 T01560100 51006
KDTN 231353Z 28004KT 10SM CLR 13/09 A3013 RMK AO2 SLP200 T01330094
KDTN 231253Z 26003KT 10SM CLR 11/09 A3011 RMK AO2 SLP196 T01060089
KDTN 231153Z 26005KT 10SM CLR 11/10 A3011 RMK AO2 SLP195 70017 T01060100 10133 20100 53001
KDTN 231053Z AUTO 25004KT 10SM CLR 10/09 A3010 RMK AO2 SLP192 T01000089 $
KDTN 230953Z AUTO 00000KT 10SM CLR 11/09 A3011 RMK AO2 SLP194 T01060089 $
KDTN 230853Z AUTO 00000KT 10SM CLR 11/09 A3011 RMK AO2 SLP194 T01060094 53001 $
KDTN 230753Z AUTO 00000KT 10SM CLR 11/10 A3011 RMK AO2 SLP194 T01110100 $
KDTN 230653Z AUTO 00000KT 10SM CLR 12/10 A3010 RMK AO2 SLP191 T01170100 $
KDTN 230553Z AUTO 31003KT 10SM CLR 13/11 A3010 RMK AO2 SLP193 T01330106 10194 20133 402440133 58002 $
KDTN 230453Z AUTO 30004KT 10SM CLR 14/11 A3012 RMK AO2 SLP196 T01390106 $
KDTN 230353Z AUTO 34005KT 10SM CLR 14/11 A3011 RMK AO2 SLP196 T01440106 $
KDTN 230253Z AUTO 35009KT 10SM CLR 16/11 A3011 RMK AO2 SLP195 T01610106 51018 $
KDTN 230153Z 34011KT 10SM CLR 17/12 A3010 RMK AO2 SLP193 T01720122 $
KDTN 230053Z 32010KT 10SM CLR 18/13 A3009 RMK AO2 SLP188 T01830128 $
KDTN 222353Z 32009KT 10SM FEW047 FEW055 SCT070 19/13 A3006 RMK AO2 SLP177 T01940133 10228 20178 53006 $
KDTN 222253Z 35008KT 10SM SCT041 SCT055 22/14 A3004 RMK AO2 SLP168 T02170139 $
KDTN 222153Z 33009KT 10SM FEW037 22/13 A3003 RMK AO2 SLP166 T02220128 $
KDTN 222053Z 35011KT 10SM BKN038 22/14 A3004 RMK AO2 SLP170 T02220139 55007 $
KDTN 221953Z 34010KT 10SM SCT028 22/15 A3004 RMK AO2 SLP168 T02170150 $
KDTN 221929Z 29011KT 10SM SCT020 SCT028 19/15 A3005 RMK AO2 T01940150 $
KDTN 221916Z 28010KT 10SM BKN020 BKN028 19/15 A3005 RMK AO2 T01890150 $
KDTN 221853Z 29005KT 10SM FEW020 18/16 A3007 RMK AO2 SLP179 T01780156 $
KDTN 221753Z 00000KT 10SM FEW009 18/16 A3006 RMK AO2 RAE04B10E26 SLPNO P0000 60017 T01780156 10178 20161 50003 $
KDTN 221751Z 30003KT 10SM FEW009 18/16 A3008 RMK AO2 RAE04B10E26 P0000 $
KDTN 221736Z 28006KT 10SM SCT008 BKN018 BKN024 17/16 A3010 RMK AO2 RAE04B10E26 P0000 T01720161 $
KDTN 221718Z 29007KT 10SM -RA SCT008 BKN014 BKN020 17/16 A3009 RMK AO2 RAE04B10 P0000 T01670161 $
KDTN 221707Z 35009KT 310V050 10SM BKN013 BKN080 BKN120 17/16 A3006 RMK AO2 RAE04 P0000 T01670156 $
KDTN 221653Z 30009KT 270V340 10SM -RA FEW011 BKN090 OVC110 17/16 A3011 RMK AO2 RAB1555 SLPNO P0002 T01670156 $
KDTN 221553Z 14008KT 10SM BKN100 OVC120 17/16 A3005 RMK AO2 RAE39 SLP175 P0000 T01720156 $
KDTN 221453Z 16004KT 10SM -RA FEW085 BKN110 17/16 A3007 RMK AO2 RAB1358 SLP181 P0001 60015 T01670156 58016 $
KDTN 221353Z 18005KT 10SM OVC110 17/15 A3012 RMK AO2 RAE38 SLP196 P0002 T01670150 $
KDTN 221253Z 04004KT 8SM -RA BKN100 OVC110 16/15 A3012 RMK AO2 SLP197 P0012 T01610150 $
KDTN 221153Z 36008KT 7SM RA OVC095 17/15 A3012 RMK AO2 SLP197 P0004 60066 70066 T01670150 10244 20167 51033 $
KDTN 221053Z AUTO 36010KT 7SM -RA FEW015 BKN075 OVC110 17/16 A3009 RMK AO2 LTG DSNT E-S TSB0957E31 SLP187 P0034 T01670156 $
KDTN 221051Z AUTO 36011KT 6SM -RA BR SCT015 BKN038 OVC110 17/16 A3008 RMK AO2 LTG DSNT E-S TSB0957E31 P0034 $
KDTN 221031Z AUTO 33008KT 5SM -RA BR SCT008 BKN013 OVC035 17/16 A3010 RMK AO2 LTG DSNT ALQDS TSB0957E31 P0027 T01670156 $
KDTN 221026Z AUTO 33008KT 4SM +TSRA BR BKN010 BKN014 OVC028 17/16 A3009 RMK AO2 LTG DSNT ALQDS TSB0957 P0026 T01670156 $
KDTN 221010Z AUTO 00000KT 4SM TSRA BR BKN008 BKN012 OVC018 17/16 A3009 RMK AO2 LTG DSNT ALQDS TSB0957 PRESRR P0016 T01670161 $
KDTN 221004Z AUTO 36006G17KT 2SM +TSRA BR FEW008 BKN018 OVC036 17/16 A3005 RMK AO2 LTG DSNT ALQDS TSB0957 P0015 T01670156 $
KDTN 220957Z AUTO 35013G23KT 1 1/4SM +TSRA BR FEW007 BKN014 OVC035 17/16 A3002 RMK AO2 LTG DSNT ALQDS TSB57 PRESFR P0010 T01670156 $
KDTN 220953Z AUTO 34015G23KT 1 1/2SM VCTS +RA BR SCT009 BKN017 OVC035 17/16 A3003 RMK AO2 PK WND 31034/0935 WSHFT 0932 LTG DSNT ALQDS RAB20 SLP165 P0028 T01670156 $
KDTN 220950Z AUTO 33013G26KT 1 3/4SM VCTS +RA BR FEW009 BKN020 OVC035 17/16 A3004 RMK AO2 PK WND 31034/0935 WSHFT 0932 LTG DSNT ALQDS RAB20 P0019 $
KDTN 220946Z AUTO 32013G27KT 2 1/2SM VCTS +RA BR SCT012 BKN018 OVC035 17/16 A3006 RMK AO2 PK WND 31034/0935 WSHFT 0932 LTG DSNT ALQDS RAB20 P0009 T01720156 $
KDTN 220938Z AUTO 31021G34KT 7SM VCTS -RA SCT014 BKN018 OVC035 20/17 A3005 RMK AO2 PK WND 31034/0935 LTG DSNT ALQDS RAB20 P0001 T02000172 $
KDTN 220853Z AUTO 19009KT 10SM OVC014 24/22 A2999 RMK AO2 SLP152 T02440217 53008 $
KDTN 220753Z AUTO VRB06G14KT 10SM OVC014 24/21 A2996 RMK AO2 SLP142 T02390211 $
KDTN 220730Z AUTO 18010KT 10SM OVC014 24/21 A2994 RMK AO2 T02390206 $
KDTN 220653Z AUTO 15006KT 10SM BKN020 BKN025 23/21 A2994 RMK AO2 SLP135 T02280206 $
KDTN 220637Z AUTO 14006KT 10SM BKN024 23/21 A2994 RMK AO2 T02330206 $
KDTN 220553Z AUTO A2996 RMK AO2 SLPNO 403110189 50004 $